Hauptseite
METAR-TAF:

METAR-TAF

Flughäfen :

Flughafen Barcelona-El Prat

Barcelona, Spanien

Breite: 41-17N, Länge: 002-04E, Höhe: 4 m

Beobachtung

Neuester Wetterbericht von vor 31 Minuten, um 08:00 UTC
Wind 11 kt aus Nordwest, variierte zwischen West/Nordwest und Nord
Temperatur 6°C
Luftfeuchtigkeit 87%
Luftdruck 1022 hPa
Sichtweite 10 km oder mehr
keine Wolken unter 1500 m und keine Kumulonimbus oder Gewitterwolken

METAR: LEBL 240800Z 32011KT 290V350 CAVOK 06/04 Q1022 NOSIG

Zeit: 09:31 (08:31 UTC)

Prognose

Neuester Wetterbericht von vor 3 Stunden und 31 Minuten, um 05:00 UTC
Gültige Prognose vom 24 um 06 UTC bis 25 um 06 UTC
Wind 6 kt aus Nord/Nordwest
Sichtweite 10 km oder mehr
Aufgelockert bewölkt in der Höhe von 2000 ft
Übergehend zu
vom 24 um 10 UTC bis 24 um 12 UTC
Wind 8 kt aus Südwest

TAF: LEBL 240500Z 2406/2506 33006KT 9999 SCT020 TX16/2413Z TN06/2406Z BECMG 2410/2412 22008KT

Wetterbeobachtungen und Prognosen von mehr als 4000 Flughäfen (METAR und TAF Bericht).

Die verfügbaren Stationen werden durch gelbe und rote Markierungen auf der Karte dargestellt.

Führen Sie die Maus auf sie, um den Namen der Station zu sehen.

Darauf klicken, um die Beobachtung von Wetterbeobachtungen und Prognosen zu sehen.

Um die Karte zu ändern : klicken Sie auf den grünen Tasten mit einem schwarzen Kreuz Zum Vergrößern, auf den grünen Button mit einem Gedankenstrich zu verkleinern, oder auf die grünen Pfeile für benachbarte Karten.


METAR-TAF: